sensor_id;sensor_type;location;lat;lon;timestamp;P1;durP1;ratioP1;P2;durP2;ratioP2
50126;SDS011;36024;47.974;16.398;2023-05-07T00:02:12;5.47;;;4.00;;
50126;SDS011;36024;47.974;16.398;2023-05-07T00:04:39;4.47;;;4.17;;
50126;SDS011;36024;47.974;16.398;2023-05-07T00:07:06;4.47;;;4.07;;
50126;SDS011;36024;47.974;16.398;2023-05-07T00:09:35;4.10;;;3.80;;
50126;SDS011;36024;47.974;16.398;2023-05-07T00:12:03;5.70;;;5.20;;
50126;SDS011;36024;47.974;16.398;2023-05-07T00:14:30;5.47;;;5.07;;
50126;SDS011;36024;47.974;16.398;2023-05-07T00:16:57;5.63;;;4.27;;
50126;SDS011;36024;47.974;16.398;2023-05-07T00:19:24;4.57;;;4.23;;
50126;SDS011;36024;47.974;16.398;2023-05-07T00:21:51;4.60;;;4.20;;
50126;SDS011;36024;47.974;16.398;2023-05-07T00:24:21;4.67;;;3.97;;
50126;SDS011;36024;47.974;16.398;2023-05-07T00:26:48;4.40;;;4.00;;
50126;SDS011;36024;47.974;16.398;2023-05-07T00:29:16;4.50;;;4.10;;
50126;SDS011;36024;47.974;16.398;2023-05-07T00:31:43;4.30;;;4.00;;
50126;SDS011;36024;47.974;16.398;2023-05-07T00:34:10;4.50;;;4.10;;
50126;SDS011;36024;47.974;16.398;2023-05-07T00:36:36;4.43;;;4.00;;
50126;SDS011;36024;47.974;16.398;2023-05-07T00:39:03;4.20;;;3.90;;
50126;SDS011;36024;47.974;16.398;2023-05-07T00:41:31;4.53;;;4.13;;
50126;SDS011;36024;47.974;16.398;2023-05-07T00:43:58;4.03;;;3.73;;
50126;SDS011;36024;47.974;16.398;2023-05-07T00:46:25;4.53;;;4.13;;
50126;SDS011;36024;47.974;16.398;2023-05-07T00:48:52;4.57;;;4.27;;
50126;SDS011;36024;47.974;16.398;2023-05-07T00:51:20;4.43;;;4.10;;
50126;SDS011;36024;47.974;16.398;2023-05-07T00:53:49;4.60;;;4.23;;
50126;SDS011;36024;47.974;16.398;2023-05-07T00:56:16;5.23;;;3.90;;
50126;SDS011;36024;47.974;16.398;2023-05-07T00:58:43;4.87;;;4.47;;
50126;SDS011;36024;47.974;16.398;2023-05-07T01:01:09;4.10;;;3.77;;
50126;SDS011;36024;47.974;16.398;2023-05-07T01:03:36;4.03;;;3.73;;
50126;SDS011;36024;47.974;16.398;2023-05-07T01:06:03;4.20;;;3.90;;
50126;SDS011;36024;47.974;16.398;2023-05-07T01:08:31;4.37;;;3.97;;
50126;SDS011;36024;47.974;16.398;2023-05-07T01:10:59;4.30;;;3.90;;
50126;SDS011;36024;47.974;16.398;2023-05-07T01:13:26;4.73;;;4.30;;
50126;SDS011;36024;47.974;16.398;2023-05-07T01:15:53;5.13;;;4.20;;
50126;SDS011;36024;47.974;16.398;2023-05-07T01:18:20;4.40;;;4.10;;
50126;SDS011;36024;47.974;16.398;2023-05-07T01:20:48;4.90;;;4.53;;
50126;SDS011;36024;47.974;16.398;2023-05-07T01:23:14;4.43;;;4.10;;
50126;SDS011;36024;47.974;16.398;2023-05-07T01:25:41;4.40;;;4.10;;
50126;SDS011;36024;47.974;16.398;2023-05-07T01:28:10;4.70;;;4.30;;
50126;SDS011;36024;47.974;16.398;2023-05-07T01:30:39;4.73;;;4.43;;
50126;SDS011;36024;47.974;16.398;2023-05-07T01:33:13;4.60;;;4.30;;
50126;SDS011;36024;47.974;16.398;2023-05-07T01:35:42;4.70;;;4.30;;
50126;SDS011;36024;47.974;16.398;2023-05-07T01:38:12;4.70;;;4.30;;
50126;SDS011;36024;47.974;16.398;2023-05-07T01:40:39;4.67;;;4.23;;
50126;SDS011;36024;47.974;16.398;2023-05-07T01:43:06;4.93;;;4.53;;
50126;SDS011;36024;47.974;16.398;2023-05-07T01:45:34;5.33;;;4.20;;
50126;SDS011;36024;47.974;16.398;2023-05-07T01:48:02;4.67;;;4.37;;
50126;SDS011;36024;47.974;16.398;2023-05-07T01:50:29;5.13;;;4.73;;
50126;SDS011;36024;47.974;16.398;2023-05-07T01:52:57;4.77;;;4.37;;
50126;SDS011;36024;47.974;16.398;2023-05-07T01:55:24;4.80;;;4.40;;
50126;SDS011;36024;47.974;16.398;2023-05-07T01:57:51;4.90;;;4.50;;
50126;SDS011;36024;47.974;16.398;2023-05-07T02:00:18;5.20;;;4.70;;
50126;SDS011;36024;47.974;16.398;2023-05-07T02:02:45;4.50;;;4.20;;
50126;SDS011;36024;47.974;16.398;2023-05-07T02:05:38;4.33;;;4.03;;
50126;SDS011;36024;47.974;16.398;2023-05-07T02:08:21;4.90;;;4.50;;
50126;SDS011;36024;47.974;16.398;2023-05-07T02:10:48;4.80;;;4.40;;
50126;SDS011;36024;47.974;16.398;2023-05-07T02:13:16;4.83;;;4.50;;
50126;SDS011;36024;47.974;16.398;2023-05-07T02:15:43;4.87;;;4.47;;
50126;SDS011;36024;47.974;16.398;2023-05-07T02:18:13;4.70;;;4.30;;
50126;SDS011;36024;47.974;16.398;2023-05-07T02:20:40;5.10;;;4.63;;
50126;SDS011;36024;47.974;16.398;2023-05-07T02:23:07;4.73;;;4.33;;
50126;SDS011;36024;47.974;16.398;2023-05-07T02:25:33;4.87;;;4.37;;
50126;SDS011;36024;47.974;16.398;2023-05-07T02:28:00;4.70;;;4.30;;
50126;SDS011;36024;47.974;16.398;2023-05-07T02:31:03;5.00;;;4.60;;
50126;SDS011;36024;47.974;16.398;2023-05-07T02:33:30;4.63;;;4.27;;
50126;SDS011;36024;47.974;16.398;2023-05-07T02:36:05;4.63;;;4.33;;
50126;SDS011;36024;47.974;16.398;2023-05-07T02:38:41;4.87;;;4.57;;
50126;SDS011;36024;47.974;16.398;2023-05-07T02:41:09;4.50;;;4.20;;
50126;SDS011;36024;47.974;16.398;2023-05-07T02:43:36;5.43;;;5.03;;
50126;SDS011;36024;47.974;16.398;2023-05-07T02:46:06;4.70;;;4.30;;
50126;SDS011;36024;47.974;16.398;2023-05-07T02:48:38;4.70;;;4.40;;
50126;SDS011;36024;47.974;16.398;2023-05-07T02:51:05;4.70;;;4.27;;
50126;SDS011;36024;47.974;16.398;2023-05-07T02:53:34;4.50;;;4.10;;
50126;SDS011;36024;47.974;16.398;2023-05-07T02:56:01;4.80;;;4.40;;
50126;SDS011;36024;47.974;16.398;2023-05-07T02:58:28;4.67;;;4.30;;
50126;SDS011;36024;47.974;16.398;2023-05-07T03:00:56;4.57;;;4.17;;
50126;SDS011;36024;47.974;16.398;2023-05-07T03:03:34;4.97;;;4.50;;
50126;SDS011;36024;47.974;16.398;2023-05-07T03:06:02;4.50;;;4.10;;
50126;SDS011;36024;47.974;16.398;2023-05-07T03:08:28;5.03;;;4.63;;
50126;SDS011;36024;47.974;16.398;2023-05-07T03:10:55;4.67;;;4.37;;
50126;SDS011;36024;47.974;16.398;2023-05-07T03:13:22;4.90;;;4.60;;
50126;SDS011;36024;47.974;16.398;2023-05-07T03:15:49;5.07;;;4.67;;
50126;SDS011;36024;47.974;16.398;2023-05-07T03:18:16;4.53;;;4.13;;
50126;SDS011;36024;47.974;16.398;2023-05-07T03:20:42;4.63;;;4.23;;
50126;SDS011;36024;47.974;16.398;2023-05-07T03:23:09;4.80;;;4.50;;
50126;SDS011;36024;47.974;16.398;2023-05-07T03:25:36;5.10;;;4.70;;
50126;SDS011;36024;47.974;16.398;2023-05-07T03:28:03;4.50;;;4.20;;
50126;SDS011;36024;47.974;16.398;2023-05-07T03:30:38;4.20;;;3.90;;
50126;SDS011;36024;47.974;16.398;2023-05-07T03:33:04;4.13;;;3.80;;
50126;SDS011;36024;47.974;16.398;2023-05-07T03:35:32;4.17;;;3.87;;
50126;SDS011;36024;47.974;16.398;2023-05-07T03:38:00;4.63;;;4.23;;
50126;SDS011;36024;47.974;16.398;2023-05-07T03:40:29;4.40;;;4.10;;
50126;SDS011;36024;47.974;16.398;2023-05-07T03:42:56;4.60;;;4.20;;
50126;SDS011;36024;47.974;16.398;2023-05-07T03:45:25;4.40;;;4.10;;
50126;SDS011;36024;47.974;16.398;2023-05-07T03:48:04;4.40;;;4.00;;
50126;SDS011;36024;47.974;16.398;2023-05-07T03:50:31;4.37;;;4.07;;
50126;SDS011;36024;47.974;16.398;2023-05-07T03:52:58;4.97;;;4.40;;
50126;SDS011;36024;47.974;16.398;2023-05-07T03:55:25;4.63;;;4.33;;
50126;SDS011;36024;47.974;16.398;2023-05-07T03:57:57;4.60;;;4.20;;
50126;SDS011;36024;47.974;16.398;2023-05-07T04:00:26;4.50;;;4.10;;
50126;SDS011;36024;47.974;16.398;2023-05-07T04:02:57;4.17;;;3.87;;
50126;SDS011;36024;47.974;16.398;2023-05-07T04:05:26;4.23;;;3.93;;
50126;SDS011;36024;47.974;16.398;2023-05-07T04:08:00;4.10;;;3.80;;
50126;SDS011;36024;47.974;16.398;2023-05-07T04:10:35;4.03;;;3.73;;
50126;SDS011;36024;47.974;16.398;2023-05-07T04:13:06;4.53;;;4.13;;
50126;SDS011;36024;47.974;16.398;2023-05-07T04:15:34;4.83;;;4.47;;
50126;SDS011;36024;47.974;16.398;2023-05-07T04:18:04;4.73;;;4.23;;
50126;SDS011;36024;47.974;16.398;2023-05-07T04:20:33;4.20;;;3.90;;
50126;SDS011;36024;47.974;16.398;2023-05-07T04:23:02;4.53;;;4.13;;
50126;SDS011;36024;47.974;16.398;2023-05-07T04:25:30;4.73;;;4.33;;
50126;SDS011;36024;47.974;16.398;2023-05-07T04:28:05;4.87;;;4.47;;
50126;SDS011;36024;47.974;16.398;2023-05-07T04:30:32;4.53;;;4.17;;
50126;SDS011;36024;47.974;16.398;2023-05-07T04:33:01;4.30;;;3.90;;
50126;SDS011;36024;47.974;16.398;2023-05-07T04:35:31;4.00;;;3.70;;
50126;SDS011;36024;47.974;16.398;2023-05-07T04:37:58;4.00;;;3.67;;
50126;SDS011;36024;47.974;16.398;2023-05-07T04:40:25;3.33;;;3.13;;
50126;SDS011;36024;47.974;16.398;2023-05-07T04:42:53;3.70;;;3.50;;
50126;SDS011;36024;47.974;16.398;2023-05-07T04:45:20;3.77;;;3.47;;
50126;SDS011;36024;47.974;16.398;2023-05-07T04:47:49;3.40;;;3.20;;
50126;SDS011;36024;47.974;16.398;2023-05-07T04:50:17;3.90;;;3.60;;
50126;SDS011;36024;47.974;16.398;2023-05-07T04:52:47;3.30;;;3.03;;
50126;SDS011;36024;47.974;16.398;2023-05-07T04:55:14;3.27;;;3.07;;
50126;SDS011;36024;47.974;16.398;2023-05-07T04:57:41;3.17;;;2.97;;
50126;SDS011;36024;47.974;16.398;2023-05-07T05:00:10;3.47;;;3.17;;
50126;SDS011;36024;47.974;16.398;2023-05-07T05:02:43;3.40;;;3.20;;
50126;SDS011;36024;47.974;16.398;2023-05-07T05:05:13;3.50;;;3.20;;
50126;SDS011;36024;47.974;16.398;2023-05-07T05:07:40;3.60;;;3.30;;
50126;SDS011;36024;47.974;16.398;2023-05-07T05:10:07;3.53;;;3.23;;
50126;SDS011;36024;47.974;16.398;2023-05-07T05:12:37;3.50;;;3.10;;
50126;SDS011;36024;47.974;16.398;2023-05-07T05:15:04;4.17;;;3.87;;
50126;SDS011;36024;47.974;16.398;2023-05-07T05:17:31;3.73;;;3.43;;
50126;SDS011;36024;47.974;16.398;2023-05-07T05:20:02;3.80;;;3.50;;
50126;SDS011;36024;47.974;16.398;2023-05-07T05:22:30;3.97;;;3.67;;
50126;SDS011;36024;47.974;16.398;2023-05-07T05:24:58;4.00;;;3.70;;
50126;SDS011;36024;47.974;16.398;2023-05-07T05:27:26;4.50;;;4.10;;
50126;SDS011;36024;47.974;16.398;2023-05-07T05:29:53;4.77;;;4.30;;
50126;SDS011;36024;47.974;16.398;2023-05-07T05:32:20;4.30;;;4.00;;
50126;SDS011;36024;47.974;16.398;2023-05-07T05:34:47;4.47;;;4.07;;
50126;SDS011;36024;47.974;16.398;2023-05-07T05:37:14;4.93;;;4.30;;
50126;SDS011;36024;47.974;16.398;2023-05-07T05:39:41;5.13;;;4.63;;
50126;SDS011;36024;47.974;16.398;2023-05-07T05:42:09;5.13;;;4.67;;
50126;SDS011;36024;47.974;16.398;2023-05-07T05:44:36;4.83;;;4.43;;
50126;SDS011;36024;47.974;16.398;2023-05-07T05:47:03;5.10;;;4.70;;
50126;SDS011;36024;47.974;16.398;2023-05-07T05:49:29;5.33;;;4.83;;
50126;SDS011;36024;47.974;16.398;2023-05-07T05:51:56;7.23;;;6.53;;
50126;SDS011;36024;47.974;16.398;2023-05-07T05:54:25;7.13;;;6.43;;
50126;SDS011;36024;47.974;16.398;2023-05-07T05:56:54;7.00;;;6.30;;
50126;SDS011;36024;47.974;16.398;2023-05-07T05:59:22;7.77;;;6.97;;
50126;SDS011;36024;47.974;16.398;2023-05-07T06:01:51;8.60;;;7.10;;
50126;SDS011;36024;47.974;16.398;2023-05-07T06:04:18;7.87;;;7.20;;
50126;SDS011;36024;47.974;16.398;2023-05-07T06:06:45;7.60;;;7.00;;
50126;SDS011;36024;47.974;16.398;2023-05-07T06:09:13;7.60;;;7.00;;
50126;SDS011;36024;47.974;16.398;2023-05-07T06:11:42;10.07;;;8.80;;
50126;SDS011;36024;47.974;16.398;2023-05-07T06:14:10;11.33;;;10.40;;
50126;SDS011;36024;47.974;16.398;2023-05-07T06:16:39;11.43;;;10.43;;
50126;SDS011;36024;47.974;16.398;2023-05-07T06:19:07;12.73;;;11.63;;
50126;SDS011;36024;47.974;16.398;2023-05-07T06:21:33;12.43;;;11.33;;
50126;SDS011;36024;47.974;16.398;2023-05-07T06:24:00;14.83;;;13.53;;
50126;SDS011;36024;47.974;16.398;2023-05-07T06:26:27;14.60;;;13.30;;
50126;SDS011;36024;47.974;16.398;2023-05-07T06:28:57;14.17;;;12.87;;
50126;SDS011;36024;47.974;16.398;2023-05-07T06:31:28;13.63;;;12.37;;
50126;SDS011;36024;47.974;16.398;2023-05-07T06:34:02;14.53;;;13.13;;
50126;SDS011;36024;47.974;16.398;2023-05-07T06:36:33;14.40;;;13.17;;
50126;SDS011;36024;47.974;16.398;2023-05-07T06:39:07;14.53;;;13.03;;
50126;SDS011;36024;47.974;16.398;2023-05-07T06:41:35;14.77;;;13.37;;
50126;SDS011;36024;47.974;16.398;2023-05-07T06:44:07;16.23;;;14.73;;
50126;SDS011;36024;47.974;16.398;2023-05-07T06:46:45;15.90;;;14.40;;
50126;SDS011;36024;47.974;16.398;2023-05-07T06:49:12;15.83;;;14.43;;
50126;SDS011;36024;47.974;16.398;2023-05-07T06:51:39;15.57;;;14.03;;
50126;SDS011;36024;47.974;16.398;2023-05-07T06:54:06;15.67;;;14.27;;
50126;SDS011;36024;47.974;16.398;2023-05-07T06:56:36;16.53;;;14.93;;
50126;SDS011;36024;47.974;16.398;2023-05-07T06:59:04;17.07;;;15.07;;
50126;SDS011;36024;47.974;16.398;2023-05-07T07:01:35;15.90;;;14.40;;
50126;SDS011;36024;47.974;16.398;2023-05-07T07:04:03;17.30;;;15.77;;
50126;SDS011;36024;47.974;16.398;2023-05-07T07:06:30;18.20;;;16.57;;
50126;SDS011;36024;47.974;16.398;2023-05-07T07:09:00;17.50;;;16.00;;
50126;SDS011;36024;47.974;16.398;2023-05-07T07:11:28;17.30;;;15.70;;
50126;SDS011;36024;47.974;16.398;2023-05-07T07:13:55;17.87;;;16.10;;
50126;SDS011;36024;47.974;16.398;2023-05-07T07:16:22;18.73;;;17.03;;
50126;SDS011;36024;47.974;16.398;2023-05-07T07:18:50;18.90;;;17.10;;
50126;SDS011;36024;47.974;16.398;2023-05-07T07:21:18;19.17;;;17.30;;
50126;SDS011;36024;47.974;16.398;2023-05-07T07:23:46;18.67;;;17.00;;
50126;SDS011;36024;47.974;16.398;2023-05-07T07:26:13;18.23;;;16.43;;
50126;SDS011;36024;47.974;16.398;2023-05-07T07:28:50;19.40;;;17.67;;
50126;SDS011;36024;47.974;16.398;2023-05-07T07:31:20;19.83;;;18.03;;
50126;SDS011;36024;47.974;16.398;2023-05-07T07:33:48;18.77;;;16.97;;
50126;SDS011;36024;47.974;16.398;2023-05-07T07:36:18;19.43;;;17.67;;
50126;SDS011;36024;47.974;16.398;2023-05-07T07:38:45;19.17;;;17.33;;
50126;SDS011;36024;47.974;16.398;2023-05-07T07:41:13;19.73;;;17.93;;
50126;SDS011;36024;47.974;16.398;2023-05-07T07:43:40;18.83;;;17.20;;
50126;SDS011;36024;47.974;16.398;2023-05-07T07:46:07;18.70;;;16.90;;
50126;SDS011;36024;47.974;16.398;2023-05-07T07:48:35;19.13;;;17.43;;
50126;SDS011;36024;47.974;16.398;2023-05-07T07:51:04;17.87;;;16.27;;
50126;SDS011;36024;47.974;16.398;2023-05-07T07:53:31;18.47;;;16.77;;
50126;SDS011;36024;47.974;16.398;2023-05-07T07:55:58;19.20;;;17.40;;
50126;SDS011;36024;47.974;16.398;2023-05-07T07:58:29;19.40;;;17.50;;
50126;SDS011;36024;47.974;16.398;2023-05-07T08:00:57;17.40;;;15.90;;
50126;SDS011;36024;47.974;16.398;2023-05-07T08:03:25;18.13;;;16.53;;
50126;SDS011;36024;47.974;16.398;2023-05-07T08:05:56;19.53;;;17.73;;
50126;SDS011;36024;47.974;16.398;2023-05-07T08:08:24;19.60;;;17.73;;
50126;SDS011;36024;47.974;16.398;2023-05-07T08:10:52;18.13;;;16.43;;
50126;SDS011;36024;47.974;16.398;2023-05-07T08:13:26;17.40;;;15.87;;
50126;SDS011;36024;47.974;16.398;2023-05-07T08:15:53;17.53;;;15.93;;
50126;SDS011;36024;47.974;16.398;2023-05-07T08:18:20;18.00;;;16.40;;
50126;SDS011;36024;47.974;16.398;2023-05-07T08:20:47;17.77;;;16.27;;
50126;SDS011;36024;47.974;16.398;2023-05-07T08:23:19;14.83;;;13.63;;
50126;SDS011;36024;47.974;16.398;2023-05-07T08:25:46;15.83;;;14.37;;
50126;SDS011;36024;47.974;16.398;2023-05-07T08:28:14;15.27;;;13.97;;
50126;SDS011;36024;47.974;16.398;2023-05-07T08:30:41;16.07;;;14.67;;
50126;SDS011;36024;47.974;16.398;2023-05-07T08:33:08;16.80;;;15.30;;
50126;SDS011;36024;47.974;16.398;2023-05-07T08:35:35;17.10;;;15.60;;
50126;SDS011;36024;47.974;16.398;2023-05-07T08:38:04;17.67;;;16.13;;
50126;SDS011;36024;47.974;16.398;2023-05-07T08:40:32;17.10;;;15.53;;
50126;SDS011;36024;47.974;16.398;2023-05-07T08:43:06;15.57;;;14.17;;
50126;SDS011;36024;47.974;16.398;2023-05-07T08:45:35;17.20;;;15.60;;
50126;SDS011;36024;47.974;16.398;2023-05-07T08:48:05;17.07;;;15.57;;
50126;SDS011;36024;47.974;16.398;2023-05-07T08:50:37;16.03;;;14.63;;
50126;SDS011;36024;47.974;16.398;2023-05-07T08:53:05;16.47;;;14.77;;
50126;SDS011;36024;47.974;16.398;2023-05-07T08:55:32;16.57;;;15.07;;
50126;SDS011;36024;47.974;16.398;2023-05-07T08:58:00;16.50;;;15.03;;
50126;SDS011;36024;47.974;16.398;2023-05-07T09:00:29;17.03;;;15.53;;
50126;SDS011;36024;47.974;16.398;2023-05-07T09:02:57;15.87;;;14.47;;
50126;SDS011;36024;47.974;16.398;2023-05-07T09:05:24;15.77;;;14.27;;
50126;SDS011;36024;47.974;16.398;2023-05-07T09:07:51;14.33;;;13.13;;
50126;SDS011;36024;47.974;16.398;2023-05-07T09:10:21;14.77;;;13.57;;
50126;SDS011;36024;47.974;16.398;2023-05-07T09:12:48;14.40;;;13.13;;
50126;SDS011;36024;47.974;16.398;2023-05-07T09:15:17;14.27;;;13.07;;
50126;SDS011;36024;47.974;16.398;2023-05-07T09:17:44;13.63;;;12.47;;
50126;SDS011;36024;47.974;16.398;2023-05-07T09:20:11;14.63;;;13.37;;
50126;SDS011;36024;47.974;16.398;2023-05-07T09:22:39;15.80;;;14.23;;
50126;SDS011;36024;47.974;16.398;2023-05-07T09:25:10;14.70;;;13.40;;
50126;SDS011;36024;47.974;16.398;2023-05-07T09:27:38;14.63;;;13.33;;
50126;SDS011;36024;47.974;16.398;2023-05-07T09:30:05;15.50;;;14.10;;
50126;SDS011;36024;47.974;16.398;2023-05-07T09:32:36;13.73;;;12.53;;
50126;SDS011;36024;47.974;16.398;2023-05-07T09:35:15;14.17;;;12.90;;
50126;SDS011;36024;47.974;16.398;2023-05-07T09:37:58;14.37;;;13.07;;
50126;SDS011;36024;47.974;16.398;2023-05-07T09:40:30;13.30;;;12.10;;
50126;SDS011;36024;47.974;16.398;2023-05-07T09:43:11;15.67;;;14.27;;
50126;SDS011;36024;47.974;16.398;2023-05-07T09:45:43;15.27;;;13.87;;
50126;SDS011;36024;47.974;16.398;2023-05-07T09:48:11;15.30;;;14.00;;
50126;SDS011;36024;47.974;16.398;2023-05-07T09:50:44;16.30;;;14.80;;
50126;SDS011;36024;47.974;16.398;2023-05-07T09:53:21;16.90;;;15.40;;
50126;SDS011;36024;47.974;16.398;2023-05-07T09:55:50;14.67;;;13.30;;
50126;SDS011;36024;47.974;16.398;2023-05-07T09:58:18;15.47;;;14.07;;
50126;SDS011;36024;47.974;16.398;2023-05-07T10:00:46;15.73;;;14.30;;
50126;SDS011;36024;47.974;16.398;2023-05-07T10:03:14;16.00;;;14.60;;
50126;SDS011;36024;47.974;16.398;2023-05-07T10:05:51;15.20;;;13.87;;
50126;SDS011;36024;47.974;16.398;2023-05-07T10:08:20;14.80;;;13.50;;
50126;SDS011;36024;47.974;16.398;2023-05-07T10:10:49;16.47;;;15.00;;
50126;SDS011;36024;47.974;16.398;2023-05-07T10:13:21;15.10;;;13.73;;
50126;SDS011;36024;47.974;16.398;2023-05-07T10:15:51;14.97;;;13.67;;
50126;SDS011;36024;47.974;16.398;2023-05-07T10:18:19;14.20;;;12.93;;
50126;SDS011;36024;47.974;16.398;2023-05-07T10:20:51;14.83;;;13.53;;
50126;SDS011;36024;47.974;16.398;2023-05-07T10:23:23;13.87;;;12.67;;
50126;SDS011;36024;47.974;16.398;2023-05-07T10:25:54;14.77;;;13.47;;
50126;SDS011;36024;47.974;16.398;2023-05-07T10:28:26;14.70;;;13.30;;
50126;SDS011;36024;47.974;16.398;2023-05-07T10:30:58;13.30;;;12.20;;
50126;SDS011;36024;47.974;16.398;2023-05-07T10:33:34;14.43;;;13.03;;
50126;SDS011;36024;47.974;16.398;2023-05-07T10:36:03;13.53;;;12.33;;
50126;SDS011;36024;47.974;16.398;2023-05-07T10:38:32;14.63;;;13.30;;
50126;SDS011;36024;47.974;16.398;2023-05-07T10:40:59;13.20;;;12.00;;
50126;SDS011;36024;47.974;16.398;2023-05-07T10:43:41;12.90;;;11.80;;
50126;SDS011;36024;47.974;16.398;2023-05-07T10:46:19;13.17;;;11.97;;
50126;SDS011;36024;47.974;16.398;2023-05-07T10:49:08;11.90;;;10.90;;
50126;SDS011;36024;47.974;16.398;2023-05-07T10:55:23;12.37;;;11.27;;
50126;SDS011;36024;47.974;16.398;2023-05-07T11:01:05;11.53;;;10.57;;
50126;SDS011;36024;47.974;16.398;2023-05-07T11:04:12;12.43;;;11.33;;
50126;SDS011;36024;47.974;16.398;2023-05-07T11:09:59;11.80;;;10.73;;
50126;SDS011;36024;47.974;16.398;2023-05-07T11:12:49;11.87;;;10.70;;
50126;SDS011;36024;47.974;16.398;2023-05-07T11:15:33;10.73;;;9.83;;
50126;SDS011;36024;47.974;16.398;2023-05-07T11:18:03;11.43;;;10.33;;
50126;SDS011;36024;47.974;16.398;2023-05-07T11:20:50;12.03;;;10.93;;
50126;SDS011;36024;47.974;16.398;2023-05-07T11:26:10;12.23;;;11.13;;
50126;SDS011;36024;47.974;16.398;2023-05-07T11:28:39;10.33;;;9.43;;
50126;SDS011;36024;47.974;16.398;2023-05-07T11:31:07;11.73;;;10.70;;
50126;SDS011;36024;47.974;16.398;2023-05-07T11:33:35;11.93;;;10.77;;
50126;SDS011;36024;47.974;16.398;2023-05-07T11:36:04;12.10;;;11.10;;
50126;SDS011;36024;47.974;16.398;2023-05-07T11:38:36;12.32;;;11.23;;
50126;SDS011;36024;47.974;16.398;2023-05-07T11:41:04;11.43;;;10.43;;
50126;SDS011;36024;47.974;16.398;2023-05-07T11:43:31;11.13;;;10.13;;
50126;SDS011;36024;47.974;16.398;2023-05-07T11:46:09;11.10;;;10.15;;
50126;SDS011;36024;47.974;16.398;2023-05-07T11:48:36;11.80;;;10.80;;
50126;SDS011;36024;47.974;16.398;2023-05-07T11:51:04;10.10;;;9.30;;
50126;SDS011;36024;47.974;16.398;2023-05-07T11:53:36;11.13;;;10.07;;
50126;SDS011;36024;47.974;16.398;2023-05-07T11:56:13;11.15;;;10.15;;
50126;SDS011;36024;47.974;16.398;2023-05-07T11:58:41;10.30;;;9.40;;
50126;SDS011;36024;47.974;16.398;2023-05-07T12:01:09;10.85;;;9.95;;
50126;SDS011;36024;47.974;16.398;2023-05-07T12:03:37;10.23;;;9.32;;
50126;SDS011;36024;47.974;16.398;2023-05-07T12:06:09;11.20;;;10.20;;
50126;SDS011;36024;47.974;16.398;2023-05-07T12:08:37;11.07;;;10.07;;
50126;SDS011;36024;47.974;16.398;2023-05-07T12:11:24;9.55;;;8.75;;
50126;SDS011;36024;47.974;16.398;2023-05-07T12:13:53;10.55;;;9.63;;
50126;SDS011;36024;47.974;16.398;2023-05-07T12:16:24;9.80;;;8.90;;
50126;SDS011;36024;47.974;16.398;2023-05-07T12:18:51;10.50;;;9.40;;
50126;SDS011;36024;47.974;16.398;2023-05-07T12:21:21;9.60;;;8.80;;
50126;SDS011;36024;47.974;16.398;2023-05-07T12:23:48;10.60;;;9.53;;
50126;SDS011;36024;47.974;16.398;2023-05-07T12:26:15;9.80;;;8.90;;
50126;SDS011;36024;47.974;16.398;2023-05-07T12:28:42;9.80;;;8.30;;
50126;SDS011;36024;47.974;16.398;2023-05-07T12:31:09;10.73;;;9.83;;
50126;SDS011;36024;47.974;16.398;2023-05-07T12:33:36;8.37;;;7.57;;
50126;SDS011;36024;47.974;16.398;2023-05-07T12:36:05;10.00;;;9.10;;
50126;SDS011;36024;47.974;16.398;2023-05-07T12:38:37;9.57;;;8.80;;
50126;SDS011;36024;47.974;16.398;2023-05-07T12:41:06;8.50;;;7.70;;
50126;SDS011;36024;47.974;16.398;2023-05-07T12:43:34;9.20;;;8.50;;
50126;SDS011;36024;47.974;16.398;2023-05-07T12:46:03;8.47;;;7.77;;
50126;SDS011;36024;47.974;16.398;2023-05-07T12:48:31;8.97;;;8.17;;
50126;SDS011;36024;47.974;16.398;2023-05-07T12:51:01;8.90;;;8.10;;
50126;SDS011;36024;47.974;16.398;2023-05-07T12:53:29;8.30;;;7.60;;
50126;SDS011;36024;47.974;16.398;2023-05-07T12:55:58;8.10;;;7.40;;
50126;SDS011;36024;47.974;16.398;2023-05-07T13:00:54;9.33;;;8.53;;
50126;SDS011;36024;47.974;16.398;2023-05-07T13:03:26;8.32;;;7.63;;
50126;SDS011;36024;47.974;16.398;2023-05-07T13:05:55;8.97;;;8.17;;
50126;SDS011;36024;47.974;16.398;2023-05-07T13:08:31;8.10;;;7.30;;
50126;SDS011;36024;47.974;16.398;2023-05-07T13:11:03;8.17;;;7.47;;
50126;SDS011;36024;47.974;16.398;2023-05-07T13:13:30;7.10;;;6.50;;
50126;SDS011;36024;47.974;16.398;2023-05-07T13:15:58;7.70;;;6.60;;
50126;SDS011;36024;47.974;16.398;2023-05-07T13:18:26;7.20;;;6.50;;
50126;SDS011;36024;47.974;16.398;2023-05-07T13:20:55;8.50;;;7.70;;
50126;SDS011;36024;47.974;16.398;2023-05-07T13:23:23;8.57;;;7.78;;
50126;SDS011;36024;47.974;16.398;2023-05-07T13:25:49;8.50;;;7.70;;
50126;SDS011;36024;47.974;16.398;2023-05-07T13:28:16;8.15;;;7.35;;
50126;SDS011;36024;47.974;16.398;2023-05-07T13:30:43;8.25;;;7.55;;
50126;SDS011;36024;47.974;16.398;2023-05-07T13:33:10;7.78;;;7.03;;
50126;SDS011;36024;47.974;16.398;2023-05-07T13:35:37;7.55;;;6.95;;
50126;SDS011;36024;47.974;16.398;2023-05-07T13:38:04;8.48;;;7.78;;
50126;SDS011;36024;47.974;16.398;2023-05-07T13:40:31;7.60;;;7.00;;
50126;SDS011;36024;47.974;16.398;2023-05-07T13:42:58;8.20;;;7.47;;
50126;SDS011;36024;47.974;16.398;2023-05-07T13:45:27;7.28;;;6.57;;
50126;SDS011;36024;47.974;16.398;2023-05-07T13:47:57;6.78;;;6.28;;
50126;SDS011;36024;47.974;16.398;2023-05-07T13:50:23;7.53;;;6.93;;
50126;SDS011;36024;47.974;16.398;2023-05-07T13:52:50;6.88;;;6.28;;
50126;SDS011;36024;47.974;16.398;2023-05-07T13:55:21;8.10;;;7.40;;
50126;SDS011;36024;47.974;16.398;2023-05-07T13:57:54;7.50;;;6.80;;
50126;SDS011;36024;47.974;16.398;2023-05-07T14:00:23;7.93;;;7.22;;
50126;SDS011;36024;47.974;16.398;2023-05-07T14:02:50;7.43;;;6.82;;
50126;SDS011;36024;47.974;16.398;2023-05-07T14:05:17;6.90;;;6.30;;
50126;SDS011;36024;47.974;16.398;2023-05-07T14:07:45;7.15;;;6.45;;
50126;SDS011;36024;47.974;16.398;2023-05-07T14:10:13;6.90;;;6.32;;
50126;SDS011;36024;47.974;16.398;2023-05-07T14:12:40;6.15;;;5.65;;
50126;SDS011;36024;47.974;16.398;2023-05-07T14:15:07;7.00;;;6.20;;
50126;SDS011;36024;47.974;16.398;2023-05-07T14:17:34;7.13;;;6.47;;
50126;SDS011;36024;47.974;16.398;2023-05-07T14:20:01;6.70;;;6.20;;
50126;SDS011;36024;47.974;16.398;2023-05-07T14:22:28;6.07;;;5.57;;
50126;SDS011;36024;47.974;16.398;2023-05-07T14:24:55;6.10;;;5.60;;
50126;SDS011;36024;47.974;16.398;2023-05-07T14:27:32;6.23;;;5.73;;
50126;SDS011;36024;47.974;16.398;2023-05-07T14:29:58;6.80;;;6.20;;
50126;SDS011;36024;47.974;16.398;2023-05-07T14:32:25;6.73;;;6.10;;
50126;SDS011;36024;47.974;16.398;2023-05-07T14:34:52;5.97;;;5.47;;
50126;SDS011;36024;47.974;16.398;2023-05-07T14:37:19;6.17;;;5.57;;
50126;SDS011;36024;47.974;16.398;2023-05-07T14:39:46;5.77;;;5.37;;
50126;SDS011;36024;47.974;16.398;2023-05-07T14:42:16;6.47;;;5.30;;
50126;SDS011;36024;47.974;16.398;2023-05-07T14:44:43;6.10;;;5.50;;
50126;SDS011;36024;47.974;16.398;2023-05-07T14:47:12;5.60;;;5.10;;
50126;SDS011;36024;47.974;16.398;2023-05-07T14:49:39;5.60;;;5.10;;
50126;SDS011;36024;47.974;16.398;2023-05-07T14:52:07;5.37;;;4.87;;